LiveATC.Net - Listen to live air traffic control over the Internet!


ICAO: 4S1  IATA: 4S1   Airport: Gold Beach Municipal Airport
City: Gold Beach   State/Province: Oregon
Country: United States   Continent: North America
KBOK METAR Weather: KBOK 222024Z AUTO 17004KT 1SM BR OVC003 13/12 A3010 RMK AO2
4S1 Flight Activity (FlightAware)
4S1 Airport Info   (AirNav) (iFlightPlanner)
4S1 VFR Sectional Chart   (iFlightPlanner) 
4S1 IFR Low Chart   (iFlightPlanner) 
4S1 CTAF
Feed Status: UP   Listeners: 0
Listen right in your browser - requires Flash (in browser, requires Flash)
Click here to listen with your own player (launches your MP3 player)
4S1 CTAF Audio Archives
FacilityFrequency
Gold Beach CTAF122.800


NOTICE

Unauthorized use prohibited. See LiveATC.net Terms of Service


Find LiveATC Audio Streams


Airport/ARTCC Code

Frequency Search
(e.g., 124.400, 128.75)
Site-wide search
 


Browse LiveATC Feeds
LiveATC Coverage Map
Top 50 LiveATC Feeds
Bad Weather Areas

LiveATC FAQ
Offer a LiveATC Feed
Contact LiveATC.net
Press Inquiries

LiveATC on iPhone
LiveATC on Android

Windows Phone
Windows 8/10

LiveATC Mobile
(Mobile browser)

ATC Audio Archives
Interesting Recordings

LiveATC Forums


Home Page
About LiveATC.net
Make a Donation
LiveATC Store

Terms of Use
Privacy Policy

Canadian Air Freqs

AIRMETs/SIGMETs

FAA Airport Status
Nat'l Airspace Status
Arrival Demand Charts


Server Software By:
Icecast.org
Liquidsoap